createdAt,value
2022-11-08T00:02:48.770Z,98454.06
2022-11-08T00:06:09.363Z,98448.25
2022-11-08T00:09:36.362Z,98457.50
2022-11-08T00:12:56.722Z,98447.28
2022-11-08T00:16:01.089Z,98456.53
2022-11-08T00:19:02.997Z,98455.00
2022-11-08T00:22:05.040Z,98451.66
2022-11-08T00:25:07.337Z,98454.03
2022-11-08T00:28:09.075Z,98454.84
2022-11-08T00:31:10.909Z,98451.56
2022-11-08T00:34:13.891Z,98451.44
2022-11-08T00:37:16.811Z,98450.16
2022-11-08T00:40:18.886Z,98450.66
2022-11-08T00:43:21.385Z,98451.72
2022-11-08T00:46:23.331Z,98450.69
2022-11-08T00:49:25.221Z,98456.63
2022-11-08T00:52:27.154Z,98450.31
2022-11-08T00:55:28.916Z,98444.75
2022-11-08T00:58:30.793Z,98439.28
2022-11-08T01:01:33.050Z,98441.69
2022-11-08T01:04:35.031Z,98436.38
2022-11-08T01:07:38.406Z,98441.72
2022-11-08T01:10:44.979Z,98450.03
2022-11-08T01:13:49.255Z,98452.66
2022-11-08T01:16:52.345Z,98457.69
2022-11-08T01:19:54.064Z,98449.69
2022-11-08T01:22:55.776Z,98450.31
2022-11-08T01:25:57.597Z,98448.44
2022-11-08T01:28:59.795Z,98447.38
2022-11-08T01:32:01.629Z,98436.56
2022-11-08T01:35:03.679Z,98439.41
2022-11-08T01:38:06.915Z,98435.63
2022-11-08T01:41:11.844Z,98439.66
2022-11-08T01:44:16.890Z,98433.50
2022-11-08T01:47:18.987Z,98433.25
2022-11-08T01:50:20.803Z,98438.72
2022-11-08T01:53:22.831Z,98422.31
2022-11-08T01:56:24.817Z,98425.53
2022-11-08T01:59:30.677Z,98422.56
2022-11-08T02:02:33.310Z,98428.53
2022-11-08T02:05:35.110Z,98428.50
2022-11-08T02:08:39.702Z,98423.75
2022-11-08T02:11:41.870Z,98419.38
2022-11-08T02:14:43.768Z,98421.38
2022-11-08T02:17:45.647Z,98415.97
2022-11-08T02:21:09.159Z,98417.28
2022-11-08T02:24:12.468Z,98416.06
2022-11-08T02:27:15.053Z,98410.59
2022-11-08T02:30:16.840Z,98418.47
2022-11-08T02:33:23.011Z,98418.78
2022-11-08T02:36:24.927Z,98416.22
2022-11-08T02:39:26.833Z,98404.31
2022-11-08T02:42:28.496Z,98412.88
2022-11-08T02:45:30.181Z,98410.72
2022-11-08T02:48:31.859Z,98403.75
2022-11-08T02:51:33.683Z,98405.97
2022-11-08T02:54:35.646Z,98400.06
2022-11-08T02:57:37.332Z,98400.50
2022-11-08T03:00:39.628Z,98404.06
2022-11-08T03:03:41.329Z,98404.66
2022-11-08T03:06:43.146Z,98398.84
2022-11-08T03:09:44.953Z,98390.50
2022-11-08T03:12:46.684Z,98400.06
2022-11-08T03:15:48.479Z,98396.84
2022-11-08T03:18:50.206Z,98394.47
2022-11-08T03:21:51.902Z,98404.88
2022-11-08T03:24:53.767Z,98404.16
2022-11-08T03:27:55.811Z,98400.94
2022-11-08T03:30:58.058Z,98401.38
2022-11-08T03:33:59.811Z,98394.13
2022-11-08T03:37:01.538Z,98396.75
2022-11-08T03:40:04.110Z,98400.84
2022-11-08T03:43:05.871Z,98400.44
2022-11-08T03:46:07.603Z,98403.75
2022-11-08T03:49:09.519Z,98406.13
2022-11-08T03:52:11.657Z,98403.53
2022-11-08T03:55:14.396Z,98406.25
2022-11-08T03:58:16.492Z,98406.47
2022-11-08T04:01:18.526Z,98416.47
2022-11-08T04:04:20.377Z,98410.53
2022-11-08T04:07:22.189Z,98406.41
2022-11-08T04:10:23.866Z,98407.03
2022-11-08T04:13:44.245Z,98406.94
2022-11-08T04:16:45.995Z,98399.66
2022-11-08T04:20:20.036Z,98399.44
2022-11-08T04:23:21.693Z,98400.19
2022-11-08T04:26:23.529Z,98401.22
2022-11-08T04:29:25.479Z,98401.34
2022-11-08T04:32:27.160Z,98394.03
2022-11-08T04:35:30.123Z,98396.75
2022-11-08T04:38:32.381Z,98395.25
2022-11-08T04:41:34.319Z,98400.66
2022-11-08T04:44:36.094Z,98402.63
2022-11-08T04:47:41.117Z,98398.94
2022-11-08T04:50:45.052Z,98397.16
2022-11-08T04:53:46.976Z,98388.94
2022-11-08T04:56:49.196Z,98382.59
2022-11-08T04:59:50.915Z,98388.22
2022-11-08T05:02:52.922Z,98386.56
2022-11-08T05:05:54.848Z,98389.47
2022-11-08T05:08:57.856Z,98391.44
2022-11-08T05:11:59.976Z,98385.13
2022-11-08T05:15:01.690Z,98392.09
2022-11-08T05:18:03.603Z,98385.53
2022-11-08T05:21:23.908Z,98387.38
2022-11-08T05:24:25.914Z,98388.00
2022-11-08T05:27:28.752Z,98395.59
2022-11-08T05:30:30.557Z,98392.38
2022-11-08T05:33:32.920Z,98398.22
2022-11-08T05:36:35.024Z,98394.03
2022-11-08T05:39:36.961Z,98392.19
2022-11-08T05:42:38.805Z,98395.31
2022-11-08T05:45:40.722Z,98389.69
2022-11-08T05:48:43.620Z,98397.59
2022-11-08T05:51:45.499Z,98398.81
2022-11-08T05:54:47.763Z,98397.59
2022-11-08T05:57:49.852Z,98400.00
2022-11-08T06:00:51.641Z,98396.44
2022-11-08T06:03:53.570Z,98394.47
2022-11-08T06:06:57.785Z,98409.16
2022-11-08T06:09:59.858Z,98401.22
2022-11-08T06:13:01.816Z,98408.41
2022-11-08T06:16:05.801Z,98405.38
2022-11-08T06:19:07.909Z,98405.88
2022-11-08T06:22:09.982Z,98408.66
2022-11-08T06:25:12.721Z,98417.94
2022-11-08T06:28:15.043Z,98421.13
2022-11-08T06:31:17.011Z,98414.53
2022-11-08T06:34:18.768Z,98417.47
2022-11-08T06:37:20.601Z,98418.97
2022-11-08T06:40:22.477Z,98414.88
2022-11-08T06:43:24.331Z,98414.81
2022-11-08T06:46:26.750Z,98413.06
2022-11-08T06:49:28.795Z,98412.28
2022-11-08T06:52:30.608Z,98420.63
2022-11-08T06:55:33.066Z,98418.75
2022-11-08T06:58:35.160Z,98420.16
2022-11-08T07:01:38.441Z,98420.53
2022-11-08T07:04:42.729Z,98425.88
2022-11-08T07:07:44.571Z,98424.72
2022-11-08T07:10:46.407Z,98436.84
2022-11-08T07:13:48.200Z,98436.59
2022-11-08T07:16:50.065Z,98435.16
2022-11-08T07:19:52.035Z,98443.53
2022-11-08T07:22:58.087Z,98432.84
2022-11-08T07:26:04.260Z,98441.97
2022-11-08T07:29:06.081Z,98436.97
2022-11-08T07:32:07.899Z,98438.47
2022-11-08T07:35:10.040Z,98441.19
2022-11-08T07:38:11.916Z,98433.66
2022-11-08T07:41:13.710Z,98435.94
2022-11-08T07:44:15.514Z,98438.78
2022-11-08T07:47:17.401Z,98435.44
2022-11-08T07:50:19.193Z,98441.47
2022-11-08T07:53:21.806Z,98443.13
2022-11-08T07:56:23.687Z,98437.84
2022-11-08T07:59:25.598Z,98436.44
2022-11-08T08:02:27.483Z,98440.38
2022-11-08T08:05:35.119Z,98434.91
2022-11-08T08:08:37.106Z,98433.44
2022-11-08T08:11:38.921Z,98432.50
2022-11-08T08:14:40.837Z,98433.88
2022-11-08T08:17:42.661Z,98435.75
2022-11-08T08:20:46.736Z,98437.00
2022-11-08T08:23:48.650Z,98437.22
2022-11-08T08:26:50.501Z,98429.91
2022-11-08T08:29:52.376Z,98438.47
2022-11-08T08:33:26.978Z,98434.41
2022-11-08T08:36:24.190Z,98440.19
2022-11-08T08:39:26.109Z,98435.84
2022-11-08T08:42:27.979Z,98430.53
2022-11-08T08:45:30.147Z,98438.97
2022-11-08T08:48:32.566Z,98430.28
2022-11-08T08:51:34.681Z,98428.22
2022-11-08T08:54:36.740Z,98435.59
2022-11-08T08:57:38.685Z,98436.97
2022-11-08T09:04:02.790Z,98434.66
2022-11-08T09:07:05.142Z,98436.25
2022-11-08T09:10:08.289Z,98435.28
2022-11-08T09:13:10.168Z,98432.66
2022-11-08T09:16:13.764Z,98438.22
2022-11-08T09:19:15.586Z,98435.00
2022-11-08T09:22:17.432Z,98444.94
2022-11-08T09:25:19.894Z,98441.50
2022-11-08T09:28:22.011Z,98441.78
2022-11-08T09:31:25.157Z,98438.91
2022-11-08T09:34:27.302Z,98439.31
2022-11-08T09:37:29.641Z,98439.16
2022-11-08T09:40:47.177Z,98429.22
2022-11-08T09:44:04.459Z,98424.81
2022-11-08T09:47:36.253Z,98417.81
2022-11-08T09:50:40.919Z,98409.09
2022-11-08T09:53:53.200Z,98414.06
2022-11-08T09:56:57.992Z,98408.69
2022-11-08T10:00:04.518Z,98410.09
2022-11-08T10:03:09.505Z,98402.06
2022-11-08T10:06:43.656Z,98407.88
2022-11-08T10:10:30.742Z,98407.84
2022-11-08T10:13:52.608Z,98400.25
2022-11-08T10:17:07.358Z,98401.44
2022-11-08T10:20:51.395Z,98404.97
2022-11-08T10:24:16.773Z,98396.03
2022-11-08T10:27:25.346Z,98392.03
2022-11-08T10:30:33.467Z,98394.09
2022-11-08T10:33:45.696Z,98380.09
2022-11-08T10:36:49.239Z,98378.56
2022-11-08T10:40:04.460Z,98383.63
2022-11-08T10:43:10.332Z,98384.88
2022-11-08T10:46:27.579Z,98380.13
2022-11-08T10:49:43.874Z,98377.78
2022-11-08T10:52:54.659Z,98374.47
2022-11-08T10:56:02.072Z,98366.38
2022-11-08T10:59:03.889Z,98375.47
2022-11-08T11:02:26.378Z,98371.09
2022-11-08T11:05:37.368Z,98371.56
2022-11-08T11:08:49.290Z,98374.84
2022-11-08T11:12:08.226Z,98368.44
2022-11-08T11:15:16.483Z,98369.00
2022-11-08T11:18:28.123Z,98368.66
2022-11-08T11:21:36.832Z,98364.88
2022-11-08T11:24:51.462Z,98359.88
2022-11-08T11:28:02.518Z,98352.50
2022-11-08T11:31:17.081Z,98358.53
2022-11-08T11:34:19.011Z,98336.13
2022-11-08T11:37:35.587Z,98338.44
2022-11-08T11:40:56.723Z,98330.88
2022-11-08T11:44:15.723Z,98330.72
2022-11-08T11:47:37.494Z,98322.41
2022-11-08T11:50:41.215Z,98329.03
2022-11-08T11:53:47.675Z,98325.91
2022-11-08T11:57:08.960Z,98316.72
2022-11-08T12:00:15.257Z,98312.38
2022-11-08T12:04:13.054Z,98305.47
2022-11-08T12:07:30.054Z,98310.72
2022-11-08T12:10:50.659Z,98293.09
2022-11-08T12:13:55.543Z,98299.53
2022-11-08T12:17:32.635Z,98294.91
2022-11-08T12:20:49.200Z,98288.16
2022-11-08T12:23:51.108Z,98294.25
2022-11-08T12:27:17.725Z,98287.50
2022-11-08T12:30:21.030Z,98294.41
2022-11-08T12:33:32.115Z,98293.75
2022-11-08T12:36:52.931Z,98290.28
2022-11-08T12:40:00.679Z,98291.44
2022-11-08T12:43:40.199Z,98293.28
2022-11-08T12:47:14.493Z,98288.16
2022-11-08T12:50:20.775Z,98290.94
2022-11-08T12:53:41.434Z,98289.63
2022-11-08T12:56:45.906Z,98281.03
2022-11-08T13:00:15.669Z,98289.94
2022-11-08T13:03:29.787Z,98280.88
2022-11-08T13:06:41.027Z,98278.56
2022-11-08T13:10:04.790Z,98283.03
2022-11-08T13:13:33.002Z,98287.66
2022-11-08T13:16:39.403Z,98279.72
2022-11-08T13:19:48.009Z,98289.25
2022-11-08T13:23:00.961Z,98283.69
2022-11-08T13:26:42.319Z,98283.03
2022-11-08T13:29:44.345Z,98278.94
2022-11-08T13:33:05.609Z,98272.63
2022-11-08T13:36:15.305Z,98279.38
2022-11-08T13:39:29.338Z,98278.06
2022-11-08T13:42:41.076Z,98278.41
2022-11-08T13:45:44.612Z,98278.03
2022-11-08T13:48:59.262Z,98277.41
2022-11-08T13:52:38.599Z,98280.00
2022-11-08T13:55:43.662Z,98281.81
2022-11-08T13:58:46.936Z,98270.03
2022-11-08T14:01:48.760Z,98278.59
2022-11-08T14:04:51.320Z,98277.59
2022-11-08T14:08:20.431Z,98272.78
2022-11-08T14:12:00.536Z,98272.91
2022-11-08T14:15:17.688Z,98276.84
2022-11-08T14:18:29.905Z,98270.41
2022-11-08T14:21:31.825Z,98265.34
2022-11-08T14:24:37.016Z,98274.16
2022-11-08T14:27:40.819Z,98272.50
2022-11-08T14:30:50.699Z,98278.09
2022-11-08T14:33:53.839Z,98265.59
2022-11-08T14:36:56.425Z,98268.69
2022-11-08T14:39:58.463Z,98270.47
2022-11-08T14:43:00.393Z,98277.69
2022-11-08T14:46:12.382Z,98264.16
2022-11-08T14:49:14.207Z,98260.78
2022-11-08T14:52:26.073Z,98261.13
2022-11-08T14:55:27.991Z,98263.66
2022-11-08T14:58:30.343Z,98259.97
2022-11-08T15:01:32.882Z,98259.31
2022-11-08T15:04:39.713Z,98259.97
2022-11-08T15:07:41.830Z,98259.56
2022-11-08T15:11:07.112Z,98262.91
2022-11-08T15:14:17.354Z,98261.31
2022-11-08T15:17:37.709Z,98257.56
2022-11-08T15:20:40.990Z,98258.31
2022-11-08T15:23:48.324Z,98261.53
2022-11-08T15:27:21.715Z,98258.69
2022-11-08T15:30:37.992Z,98267.63
2022-11-08T15:33:42.057Z,98270.78
2022-11-08T15:36:44.057Z,98264.94
2022-11-08T15:39:46.488Z,98277.38
2022-11-08T15:42:50.897Z,98271.38
2022-11-08T15:45:53.837Z,98277.50
2022-11-08T15:48:57.817Z,98276.16
2022-11-08T15:51:59.952Z,98275.00
2022-11-08T15:55:01.779Z,98279.16
2022-11-08T15:58:04.812Z,98275.19
2022-11-08T16:01:07.144Z,98277.38
2022-11-08T16:04:13.492Z,98277.81
2022-11-08T16:07:15.721Z,98286.06
2022-11-08T16:10:20.917Z,98293.09
2022-11-08T16:13:33.261Z,98292.31
2022-11-08T16:16:35.887Z,98289.31
2022-11-08T16:19:37.768Z,98290.47
2022-11-08T16:22:40.012Z,98291.56
2022-11-08T16:25:49.715Z,98294.03
2022-11-08T16:28:51.938Z,98294.34
2022-11-08T16:31:53.812Z,98291.59
2022-11-08T16:34:55.824Z,98296.81
2022-11-08T16:37:57.662Z,98300.97
2022-11-08T16:40:59.626Z,98299.00
2022-11-08T16:44:01.543Z,98299.91
2022-11-08T16:47:03.635Z,98302.81
2022-11-08T16:50:07.762Z,98300.88
2022-11-08T16:53:20.944Z,98298.06
2022-11-08T16:56:23.438Z,98296.41
2022-11-08T16:59:25.496Z,98302.16
2022-11-08T17:02:31.751Z,98303.53
2022-11-08T17:05:34.202Z,98299.16
2022-11-08T17:08:36.466Z,98304.00
2022-11-08T17:11:39.831Z,98301.22
2022-11-08T17:14:41.895Z,98308.97
2022-11-08T17:17:44.815Z,98313.53
2022-11-08T17:20:47.763Z,98315.28
2022-11-08T17:23:50.233Z,98313.19
2022-11-08T17:26:53.832Z,98305.84
2022-11-08T17:29:55.870Z,98302.38
2022-11-08T17:32:57.968Z,98310.63
2022-11-08T17:36:07.620Z,98300.00
2022-11-08T17:39:12.525Z,98309.44
2022-11-08T17:42:15.055Z,98308.47
2022-11-08T17:45:17.167Z,98304.84
2022-11-08T17:48:19.555Z,98309.53
2022-11-08T17:51:22.350Z,98305.91
2022-11-08T17:54:24.981Z,98311.16
2022-11-08T17:57:30.217Z,98317.94
2022-11-08T18:00:33.763Z,98308.53
2022-11-08T18:03:35.936Z,98309.88
2022-11-08T18:06:40.789Z,98311.84
2022-11-08T18:09:42.777Z,98322.59
2022-11-08T18:12:45.324Z,98317.72
2022-11-08T18:15:48.421Z,98317.97
2022-11-08T18:18:51.370Z,98325.97
2022-11-08T18:21:54.472Z,98321.91
2022-11-08T18:24:57.335Z,98320.22
2022-11-08T18:27:59.463Z,98322.28
2022-11-08T18:31:11.263Z,98314.63
2022-11-08T18:34:13.324Z,98313.66
2022-11-08T18:37:15.333Z,98326.00
2022-11-08T18:40:17.829Z,98324.47
2022-11-08T18:43:20.219Z,98325.88
2022-11-08T18:46:24.539Z,98325.06
2022-11-08T18:49:27.014Z,98322.69
2022-11-08T18:52:29.966Z,98330.88
2022-11-08T18:55:33.728Z,98325.13
2022-11-08T18:58:36.562Z,98328.88
2022-11-08T19:01:39.463Z,98327.88
2022-11-08T19:04:42.939Z,98325.41
2022-11-08T19:07:46.941Z,98331.22
2022-11-08T19:10:54.998Z,98324.56
2022-11-08T19:13:59.889Z,98340.56
2022-11-08T19:17:05.386Z,98325.00
2022-11-08T19:20:11.151Z,98331.22
2022-11-08T19:23:13.457Z,98326.78
2022-11-08T19:26:25.140Z,98328.72
2022-11-08T19:29:30.235Z,98333.66
2022-11-08T19:32:33.205Z,98328.16
2022-11-08T19:35:37.874Z,98335.03
2022-11-08T19:38:41.444Z,98336.16
2022-11-08T19:41:45.649Z,98339.75
2022-11-08T19:44:49.044Z,98342.25
2022-11-08T19:47:53.041Z,98347.19
2022-11-08T19:50:57.121Z,98352.81
2022-11-08T19:54:05.985Z,98342.03
2022-11-08T19:57:12.292Z,98352.13
2022-11-08T20:00:16.032Z,98351.03
2022-11-08T20:03:19.304Z,98355.53
2022-11-08T20:06:22.760Z,98354.28
2022-11-08T20:09:30.639Z,98356.47
2022-11-08T20:12:33.065Z,98356.59
2022-11-08T20:15:37.640Z,98369.44
2022-11-08T20:18:41.597Z,98360.50
2022-11-08T20:21:46.541Z,98366.97
2022-11-08T20:24:49.047Z,98362.03
2022-11-08T20:27:50.968Z,98381.19
2022-11-08T20:30:53.245Z,98374.72
2022-11-08T20:33:56.196Z,98377.06
2022-11-08T20:36:58.856Z,98378.75
2022-11-08T20:40:00.745Z,98383.56
2022-11-08T20:43:02.782Z,98377.22
2022-11-08T20:46:06.895Z,98378.31
2022-11-08T20:49:09.687Z,98371.13
2022-11-08T20:52:11.816Z,98370.59
2022-11-08T20:55:13.996Z,98370.31
2022-11-08T20:58:16.230Z,98377.59
2022-11-08T21:01:21.501Z,98373.59
2022-11-08T21:04:23.850Z,98381.19
2022-11-08T21:10:49.096Z,98385.44
2022-11-08T21:13:51.293Z,98377.91
2022-11-08T21:17:20.070Z,98372.38
2022-11-08T21:20:15.696Z,98386.31
2022-11-08T21:23:19.076Z,98381.53
2022-11-08T21:26:21.108Z,98377.94
2022-11-08T21:29:23.024Z,98374.50
2022-11-08T21:32:25.102Z,98366.66
2022-11-08T21:35:27.028Z,98362.66
2022-11-08T21:38:29.530Z,98368.19
2022-11-08T21:41:31.602Z,98372.88
2022-11-08T21:44:33.455Z,98374.53
2022-11-08T21:47:35.681Z,98368.31
2022-11-08T21:50:38.335Z,98372.47
2022-11-08T21:53:49.449Z,98368.03
2022-11-08T21:56:55.827Z,98365.84
2022-11-08T21:59:57.852Z,98366.53
2022-11-08T22:02:59.859Z,98362.25
2022-11-08T22:06:02.181Z,98363.22
2022-11-08T22:09:04.393Z,98353.69
2022-11-08T22:12:06.602Z,98364.47
2022-11-08T22:15:09.559Z,98364.88
2022-11-08T22:18:36.420Z,98363.91
2022-11-08T22:21:40.501Z,98361.16
2022-11-08T22:24:43.343Z,98351.38
2022-11-08T22:27:45.209Z,98356.88
2022-11-08T22:30:51.772Z,98356.47
2022-11-08T22:33:53.617Z,98353.03
2022-11-08T22:36:55.543Z,98362.53
2022-11-08T22:39:57.618Z,98352.47
2022-11-08T22:42:59.593Z,98355.75
2022-11-08T22:46:01.908Z,98351.34
2022-11-08T22:49:04.079Z,98347.78
2022-11-08T22:52:06.338Z,98356.19
2022-11-08T22:55:08.960Z,98356.91
2022-11-08T22:58:12.174Z,98346.69
2022-11-08T23:01:15.264Z,98352.47
2022-11-08T23:04:17.537Z,98349.41
2022-11-08T23:07:19.411Z,98347.63
2022-11-08T23:10:21.385Z,98345.81
2022-11-08T23:13:41.940Z,98349.97
2022-11-08T23:16:45.536Z,98337.56
2022-11-08T23:20:05.958Z,98346.41
2022-11-08T23:23:27.868Z,98347.06
2022-11-08T23:27:05.179Z,98343.06
2022-11-08T23:30:26.903Z,98346.53
2022-11-08T23:33:28.751Z,98348.31
2022-11-08T23:36:30.619Z,98351.34
2022-11-08T23:39:32.523Z,98351.34
2022-11-08T23:42:52.909Z,98342.63
2022-11-08T23:45:54.813Z,98344.03
2022-11-08T23:48:56.733Z,98342.25
2022-11-08T23:51:58.797Z,98337.53
2022-11-08T23:55:00.572Z,98339.75
2022-11-08T23:58:02.328Z,98331.06
